sensor_id;sensor_type;location;lat;lon;timestamp;pressure;altitude;pressure_sealevel;temperature;humidity
71465;BME280;59274;49.874;9.154;2023-02-01T00:01:18;100891.59;;;4.90;100.00
71465;BME280;59274;49.874;9.154;2023-02-01T00:03:44;100883.56;;;4.82;100.00
71465;BME280;59274;49.874;9.154;2023-02-01T00:06:09;100880.22;;;4.85;100.00
71465;BME280;59274;49.874;9.154;2023-02-01T00:08:36;100883.88;;;4.89;100.00
71465;BME280;59274;49.874;9.154;2023-02-01T00:11:04;100880.09;;;4.90;100.00
71465;BME280;59274;49.874;9.154;2023-02-01T00:13:31;100883.53;;;4.90;100.00
71465;BME280;59274;49.874;9.154;2023-02-01T00:16:12;100889.09;;;4.94;100.00
71465;BME280;59274;49.874;9.154;2023-02-01T00:18:38;100899.84;;;5.02;100.00
71465;BME280;59274;49.874;9.154;2023-02-01T00:21:04;100895.56;;;5.01;100.00
71465;BME280;59274;49.874;9.154;2023-02-01T00:23:34;100895.41;;;5.06;100.00
71465;BME280;59274;49.874;9.154;2023-02-01T00:26:05;100893.50;;;5.16;100.00
71465;BME280;59274;49.874;9.154;2023-02-01T00:28:30;100895.22;;;5.11;100.00
71465;BME280;59274;49.874;9.154;2023-02-01T00:31:00;100896.38;;;5.10;100.00
71465;BME280;59274;49.874;9.154;2023-02-01T00:33:28;100902.19;;;5.12;100.00
71465;BME280;59274;49.874;9.154;2023-02-01T00:35:57;100908.69;;;5.11;100.00
71465;BME280;59274;49.874;9.154;2023-02-01T00:38:24;100899.84;;;5.11;100.00
71465;BME280;59274;49.874;9.154;2023-02-01T00:40:50;100896.19;;;5.16;100.00
71465;BME280;59274;49.874;9.154;2023-02-01T00:43:15;100892.41;;;5.08;100.00
71465;BME280;59274;49.874;9.154;2023-02-01T00:45:41;100899.38;;;5.09;100.00
71465;BME280;59274;49.874;9.154;2023-02-01T00:48:06;100890.97;;;5.02;100.00
71465;BME280;59274;49.874;9.154;2023-02-01T00:50:32;100898.09;;;5.06;100.00
71465;BME280;59274;49.874;9.154;2023-02-01T00:52:57;100886.69;;;5.09;100.00
71465;BME280;59274;49.874;9.154;2023-02-01T00:55:22;100892.22;;;5.04;100.00
71465;BME280;59274;49.874;9.154;2023-02-01T00:57:48;100892.41;;;5.08;100.00
71465;BME280;59274;49.874;9.154;2023-02-01T01:00:14;100893.19;;;5.08;100.00
71465;BME280;59274;49.874;9.154;2023-02-01T01:02:39;100891.13;;;5.05;100.00
71465;BME280;59274;49.874;9.154;2023-02-01T01:05:05;100897.59;;;5.04;100.00
71465;BME280;59274;49.874;9.154;2023-02-01T01:07:31;100894.16;;;5.04;100.00
71465;BME280;59274;49.874;9.154;2023-02-01T01:09:56;100897.59;;;5.04;100.00
71465;BME280;59274;49.874;9.154;2023-02-01T01:12:22;100880.69;;;4.95;100.00
71465;BME280;59274;49.874;9.154;2023-02-01T01:14:47;100881.50;;;4.87;100.00
71465;BME280;59274;49.874;9.154;2023-02-01T01:17:13;100889.72;;;4.82;100.00
71465;BME280;59274;49.874;9.154;2023-02-01T01:19:38;100883.22;;;4.83;100.00
71465;BME280;59274;49.874;9.154;2023-02-01T01:22:04;100888.47;;;4.80;100.00
71465;BME280;59274;49.874;9.154;2023-02-01T01:24:29;100883.25;;;4.75;100.00
71465;BME280;59274;49.874;9.154;2023-02-01T01:26:54;100878.31;;;4.77;100.00
71465;BME280;59274;49.874;9.154;2023-02-01T01:29:20;100877.22;;;4.78;100.00
71465;BME280;59274;49.874;9.154;2023-02-01T01:31:45;100885.59;;;4.76;100.00
71465;BME280;59274;49.874;9.154;2023-02-01T01:34:11;100889.88;;;4.77;100.00
71465;BME280;59274;49.874;9.154;2023-02-01T01:36:36;100860.94;;;4.83;100.00
71465;BME280;59274;49.874;9.154;2023-02-01T01:39:02;100881.50;;;4.79;100.00
71465;BME280;59274;49.874;9.154;2023-02-01T01:41:31;100872.31;;;4.80;100.00
71465;BME280;59274;49.874;9.154;2023-02-01T01:44:02;100858.88;;;4.80;100.00
71465;BME280;59274;49.874;9.154;2023-02-01T01:51:44;100846.34;;;4.92;100.00
71465;BME280;59274;49.874;9.154;2023-02-01T01:54:37;100849.34;;;4.91;100.00
71465;BME280;59274;49.874;9.154;2023-02-01T01:57:09;100846.16;;;4.97;100.00
71465;BME280;59274;49.874;9.154;2023-02-01T01:59:38;100850.31;;;4.95;100.00
71465;BME280;59274;49.874;9.154;2023-02-01T02:02:06;100858.06;;;4.96;100.00
71465;BME280;59274;49.874;9.154;2023-02-01T02:04:32;100853.78;;;4.95;100.00
71465;BME280;59274;49.874;9.154;2023-02-01T02:07:09;100851.41;;;4.94;100.00
71465;BME280;59274;49.874;9.154;2023-02-01T02:09:37;100848.41;;;4.95;100.00
71465;BME280;59274;49.874;9.154;2023-02-01T02:12:03;100846.50;;;4.87;100.00
71465;BME280;59274;49.874;9.154;2023-02-01T02:14:29;100853.47;;;4.88;100.00
71465;BME280;59274;49.874;9.154;2023-02-01T02:39:08;100830.06;;;4.63;100.00
71465;BME280;59274;49.874;9.154;2023-02-01T02:50:35;100826.75;;;4.57;100.00
71465;BME280;59274;49.874;9.154;2023-02-01T02:53:56;100827.06;;;4.56;100.00
71465;BME280;59274;49.874;9.154;2023-02-01T02:56:37;100833.22;;;4.56;100.00
71465;BME280;59274;49.874;9.154;2023-02-01T02:59:24;100840.50;;;4.64;100.00
71465;BME280;59274;49.874;9.154;2023-02-01T03:02:09;100855.38;;;4.62;100.00
71465;BME280;59274;49.874;9.154;2023-02-01T03:04:54;100859.66;;;4.63;100.00
71465;BME280;59274;49.874;9.154;2023-02-01T03:10:17;100863.59;;;4.57;100.00
71465;BME280;59274;49.874;9.154;2023-02-01T03:12:47;100850.47;;;4.55;100.00
71465;BME280;59274;49.874;9.154;2023-02-01T03:17:57;100847.94;;;4.50;100.00
71465;BME280;59274;49.874;9.154;2023-02-01T03:20:25;100862.03;;;4.47;100.00
71465;BME280;59274;49.874;9.154;2023-02-01T03:22:56;100863.44;;;4.45;100.00
71465;BME280;59274;49.874;9.154;2023-02-01T03:25:29;100836.06;;;4.43;100.00
71465;BME280;59274;49.874;9.154;2023-02-01T03:28:04;100836.06;;;4.34;100.00
71465;BME280;59274;49.874;9.154;2023-02-01T03:30:40;100823.28;;;4.31;100.00
71465;BME280;59274;49.874;9.154;2023-02-01T03:33:11;100807.44;;;4.29;100.00
71465;BME280;59274;49.874;9.154;2023-02-01T03:38:37;100804.94;;;4.24;100.00
71465;BME280;59274;49.874;9.154;2023-02-01T03:41:11;100818.50;;;4.28;100.00
71465;BME280;59274;49.874;9.154;2023-02-01T03:44:04;100808.41;;;4.25;100.00
71465;BME280;59274;49.874;9.154;2023-02-01T03:46:45;100811.53;;;4.27;100.00
71465;BME280;59274;49.874;9.154;2023-02-01T03:49:18;100810.75;;;4.26;100.00
71465;BME280;59274;49.874;9.154;2023-02-01T03:51:47;100795.28;;;4.32;100.00
71465;BME280;59274;49.874;9.154;2023-02-01T03:54:14;100806.03;;;4.32;100.00
71465;BME280;59274;49.874;9.154;2023-02-01T03:56:42;100799.56;;;4.33;100.00
71465;BME280;59274;49.874;9.154;2023-02-01T03:59:10;100791.31;;;4.29;100.00
71465;BME280;59274;49.874;9.154;2023-02-01T04:01:36;100802.22;;;4.24;100.00
71465;BME280;59274;49.874;9.154;2023-02-01T04:04:01;100812.03;;;4.29;100.00
71465;BME280;59274;49.874;9.154;2023-02-01T04:06:27;100809.34;;;4.20;100.00
71465;BME280;59274;49.874;9.154;2023-02-01T04:08:52;100800.31;;;4.16;100.00
71465;BME280;59274;49.874;9.154;2023-02-01T04:11:18;100799.53;;;4.16;100.00
71465;BME280;59274;49.874;9.154;2023-02-01T04:13:44;100804.59;;;4.17;100.00
71465;BME280;59274;49.874;9.154;2023-02-01T04:16:09;100808.09;;;4.18;100.00
71465;BME280;59274;49.874;9.154;2023-02-01T04:18:35;100791.31;;;4.21;100.00
71465;BME280;59274;49.874;9.154;2023-02-01T04:21:01;100802.06;;;4.21;100.00
71465;BME280;59274;49.874;9.154;2023-02-01T04:23:27;100797.66;;;4.25;100.00
71465;BME280;59274;49.874;9.154;2023-02-01T04:25:53;100793.06;;;4.25;100.00
71465;BME280;59274;49.874;9.154;2023-02-01T04:28:22;100792.91;;;4.30;100.00
71465;BME280;59274;49.874;9.154;2023-02-01T04:30:47;100795.59;;;4.30;100.00
71465;BME280;59274;49.874;9.154;2023-02-01T04:33:12;100795.91;;;4.29;100.00
71465;BME280;59274;49.874;9.154;2023-02-01T04:35:39;100783.09;;;4.26;100.00
71465;BME280;59274;49.874;9.154;2023-02-01T04:38:08;100777.56;;;4.22;100.00
71465;BME280;59274;49.874;9.154;2023-02-01T04:40:33;100788.00;;;4.24;100.00
71465;BME280;59274;49.874;9.154;2023-02-01T04:43:00;100790.84;;;4.27;100.00
71465;BME280;59274;49.874;9.154;2023-02-01T04:45:26;100788.63;;;4.29;100.00
71465;BME280;59274;49.874;9.154;2023-02-01T04:47:51;100779.94;;;4.32;100.00
71465;BME280;59274;49.874;9.154;2023-02-01T04:50:17;100783.56;;;4.37;100.00
71465;BME280;59274;49.874;9.154;2023-02-01T04:52:42;100788.47;;;4.34;100.00
71465;BME280;59274;49.874;9.154;2023-02-01T04:55:10;100797.50;;;4.39;100.00
71465;BME280;59274;49.874;9.154;2023-02-01T04:57:35;100791.31;;;4.38;100.00
71465;BME280;59274;49.874;9.154;2023-02-01T05:00:04;100796.41;;;4.40;100.00
71465;BME280;59274;49.874;9.154;2023-02-01T05:02:30;100797.31;;;4.44;100.00
71465;BME280;59274;49.874;9.154;2023-02-01T05:04:57;100810.16;;;4.47;100.00
71465;BME280;59274;49.874;9.154;2023-02-01T05:07:23;100806.19;;;4.44;100.00
71465;BME280;59274;49.874;9.154;2023-02-01T05:09:48;100790.38;;;4.43;100.00
71465;BME280;59274;49.874;9.154;2023-02-01T05:12:13;100801.28;;;4.46;100.00
71465;BME280;59274;49.874;9.154;2023-02-01T05:14:57;100798.75;;;4.50;100.00
71465;BME280;59274;49.874;9.154;2023-02-01T05:17:23;100791.47;;;4.50;100.00
71465;BME280;59274;49.874;9.154;2023-02-01T05:19:48;100785.78;;;4.52;100.00
71465;BME280;59274;49.874;9.154;2023-02-01T05:22:14;100788.94;;;4.54;100.00
71465;BME280;59274;49.874;9.154;2023-02-01T05:24:39;100784.38;;;4.54;100.00
71465;BME280;59274;49.874;9.154;2023-02-01T05:27:05;100793.38;;;4.58;100.00
71465;BME280;59274;49.874;9.154;2023-02-01T05:29:30;100786.41;;;4.57;100.00
71465;BME280;59274;49.874;9.154;2023-02-01T05:31:56;100781.19;;;4.52;100.00
71465;BME280;59274;49.874;9.154;2023-02-01T05:34:21;100777.06;;;4.55;100.00
71465;BME280;59274;49.874;9.154;2023-02-01T05:36:47;100771.84;;;4.58;100.00
71465;BME280;59274;49.874;9.154;2023-02-01T05:39:12;100769.16;;;4.58;100.00
71465;BME280;59274;49.874;9.154;2023-02-01T05:41:41;100774.69;;;4.62;100.00
71465;BME280;59274;49.874;9.154;2023-02-01T05:44:06;100776.25;;;4.63;100.00
71465;BME280;59274;49.874;9.154;2023-02-01T05:46:33;100767.09;;;4.64;100.00
71465;BME280;59274;49.874;9.154;2023-02-01T05:48:59;100774.06;;;4.65;100.00
71465;BME280;59274;49.874;9.154;2023-02-01T05:51:24;100769.28;;;4.70;100.00
71465;BME280;59274;49.874;9.154;2023-02-01T05:53:50;100778.94;;;4.71;100.00
71465;BME280;59274;49.874;9.154;2023-02-01T05:56:15;100779.25;;;4.70;100.00
71465;BME280;59274;49.874;9.154;2023-02-01T05:58:41;100787.31;;;4.70;100.00
71465;BME280;59274;49.874;9.154;2023-02-01T06:01:06;100793.19;;;4.72;100.00
71465;BME280;59274;49.874;9.154;2023-02-01T06:03:32;100799.69;;;4.71;100.00
71465;BME280;59274;49.874;9.154;2023-02-01T06:05:57;100791.59;;;4.71;100.00
71465;BME280;59274;49.874;9.154;2023-02-01T06:08:23;100785.13;;;4.72;100.00
71465;BME280;59274;49.874;9.154;2023-02-01T06:10:50;100787.94;;;4.84;100.00
71465;BME280;59274;49.874;9.154;2023-02-01T06:13:17;100777.03;;;4.89;100.00
71465;BME280;59274;49.874;9.154;2023-02-01T06:15:42;100778.44;;;4.87;100.00
71465;BME280;59274;49.874;9.154;2023-02-01T06:18:09;100772.28;;;4.86;100.00
71465;BME280;59274;49.874;9.154;2023-02-01T06:20:34;100771.16;;;4.87;100.00
71465;BME280;59274;49.874;9.154;2023-02-01T06:22:59;100771.66;;;4.89;100.00
71465;BME280;59274;49.874;9.154;2023-02-01T06:25:25;100780.03;;;4.88;100.00
71465;BME280;59274;49.874;9.154;2023-02-01T06:27:50;100775.56;;;4.92;100.00
71465;BME280;59274;49.874;9.154;2023-02-01T06:30:16;100782.41;;;4.89;100.00
71465;BME280;59274;49.874;9.154;2023-02-01T06:32:42;100775.25;;;4.93;100.00
71465;BME280;59274;49.874;9.154;2023-02-01T06:35:08;100771.16;;;4.87;100.00
71465;BME280;59274;49.874;9.154;2023-02-01T06:37:37;100776.06;;;4.94;100.00
71465;BME280;59274;49.874;9.154;2023-02-01T06:40:03;100777.47;;;4.91;100.00
71465;BME280;59274;49.874;9.154;2023-02-01T06:42:28;100770.19;;;4.92;100.00
71465;BME280;59274;49.874;9.154;2023-02-01T06:44:54;100780.97;;;4.83;100.00
71465;BME280;59274;49.874;9.154;2023-02-01T06:47:19;100780.22;;;4.74;100.00
71465;BME280;59274;49.874;9.154;2023-02-01T06:49:45;100779.28;;;4.61;100.00
71465;BME280;59274;49.874;9.154;2023-02-01T06:52:10;100789.56;;;4.68;100.00
71465;BME280;59274;49.874;9.154;2023-02-01T06:54:35;100790.03;;;4.70;100.00
71465;BME280;59274;49.874;9.154;2023-02-01T06:57:03;100798.88;;;4.70;100.00
71465;BME280;59274;49.874;9.154;2023-02-01T06:59:28;100802.53;;;4.66;100.00
71465;BME280;59274;49.874;9.154;2023-02-01T07:01:54;100802.22;;;4.59;100.00
71465;BME280;59274;49.874;9.154;2023-02-01T07:04:19;100803.47;;;4.70;100.00
71465;BME280;59274;49.874;9.154;2023-02-01T07:06:44;100800.94;;;4.73;100.00
71465;BME280;59274;49.874;9.154;2023-02-01T07:09:11;100796.19;;;4.70;100.00
71465;BME280;59274;49.874;9.154;2023-02-01T07:11:38;100800.16;;;4.64;100.00
71465;BME280;59274;49.874;9.154;2023-02-01T07:14:09;100811.09;;;4.59;100.00
71465;BME280;59274;49.874;9.154;2023-02-01T07:16:34;100817.72;;;4.70;100.00
71465;BME280;59274;49.874;9.154;2023-02-01T07:19:00;100819.47;;;4.66;100.00
71465;BME280;59274;49.874;9.154;2023-02-01T07:21:26;100819.16;;;4.59;100.00
71465;BME280;59274;49.874;9.154;2023-02-01T07:23:53;100816.47;;;4.68;100.00
71465;BME280;59274;49.874;9.154;2023-02-01T07:26:18;100807.44;;;4.64;100.00
71465;BME280;59274;49.874;9.154;2023-02-01T07:28:44;100808.72;;;4.66;100.00
71465;BME280;59274;49.874;9.154;2023-02-01T07:31:12;100794.41;;;4.83;100.00
71465;BME280;59274;49.874;9.154;2023-02-01T07:33:43;100790.97;;;4.83;100.00
71465;BME280;59274;49.874;9.154;2023-02-01T07:36:12;100793.81;;;4.78;100.00
71465;BME280;59274;49.874;9.154;2023-02-01T07:38:38;100776.72;;;4.73;100.00
71465;BME280;59274;49.874;9.154;2023-02-01T07:41:04;100785.13;;;4.72;100.00
71465;BME280;59274;49.874;9.154;2023-02-01T07:43:31;100795.09;;;4.71;100.00
71465;BME280;59274;49.874;9.154;2023-02-01T07:45:58;100805.06;;;4.71;100.00
71465;BME280;59274;49.874;9.154;2023-02-01T07:48:25;100817.88;;;4.65;100.00
71465;BME280;59274;49.874;9.154;2023-02-01T07:51:10;100827.06;;;4.64;100.00
71465;BME280;59274;49.874;9.154;2023-02-01T07:53:37;100824.06;;;4.66;100.00
71465;BME280;59274;49.874;9.154;2023-02-01T07:56:03;100827.69;;;4.70;100.00
71465;BME280;59274;49.874;9.154;2023-02-01T07:58:29;100833.06;;;4.70;100.00
71465;BME280;59274;49.874;9.154;2023-02-01T08:00:55;100840.50;;;4.73;100.00
71465;BME280;59274;49.874;9.154;2023-02-01T08:03:39;100834.66;;;4.80;100.00
71465;BME280;59274;49.874;9.154;2023-02-01T08:06:06;100841.91;;;4.88;100.00
71465;BME280;59274;49.874;9.154;2023-02-01T08:08:32;100848.84;;;4.97;100.00
71465;BME280;59274;49.874;9.154;2023-02-01T08:10:58;100840.31;;;5.04;100.00
71465;BME280;59274;49.874;9.154;2023-02-01T08:13:24;100849.00;;;5.09;100.00
71465;BME280;59274;49.874;9.154;2023-02-01T08:15:49;100859.78;;;5.18;100.00
71465;BME280;59274;49.874;9.154;2023-02-01T08:18:15;100855.59;;;5.29;100.00
71465;BME280;59274;49.874;9.154;2023-02-01T08:20:43;100858.91;;;5.35;100.00
71465;BME280;59274;49.874;9.154;2023-02-01T08:23:11;100852.88;;;5.46;100.00
71465;BME280;59274;49.874;9.154;2023-02-01T08:25:36;100847.44;;;5.55;99.88
71465;BME280;59274;49.874;9.154;2023-02-01T08:28:03;100860.56;;;5.65;98.97
71465;BME280;59274;49.874;9.154;2023-02-01T08:30:28;100864.34;;;5.73;99.63
71465;BME280;59274;49.874;9.154;2023-02-01T08:32:54;100863.31;;;5.86;99.40
71465;BME280;59274;49.874;9.154;2023-02-01T08:35:19;100872.34;;;5.90;99.19
71465;BME280;59274;49.874;9.154;2023-02-01T08:37:45;100873.94;;;5.91;99.35
71465;BME280;59274;49.874;9.154;2023-02-01T08:40:10;100869.50;;;5.86;98.17
71465;BME280;59274;49.874;9.154;2023-02-01T08:42:36;100873.13;;;5.90;98.59
71465;BME280;59274;49.874;9.154;2023-02-01T08:45:22;100873.31;;;5.94;98.14
71465;BME280;59274;49.874;9.154;2023-02-01T08:47:52;100870.41;;;5.99;97.72
71465;BME280;59274;49.874;9.154;2023-02-01T08:50:18;100873.44;;;5.98;96.36
71465;BME280;59274;49.874;9.154;2023-02-01T08:52:44;100877.72;;;5.99;96.30
71465;BME280;59274;49.874;9.154;2023-02-01T08:55:10;100890.22;;;6.03;95.89
71465;BME280;59274;49.874;9.154;2023-02-01T08:57:36;100892.72;;;6.08;96.03
71465;BME280;59274;49.874;9.154;2023-02-01T09:00:03;100892.06;;;6.11;95.41
71465;BME280;59274;49.874;9.154;2023-02-01T09:02:29;100889.03;;;6.13;93.47
71465;BME280;59274;49.874;9.154;2023-02-01T09:04:55;100887.94;;;6.14;93.66
71465;BME280;59274;49.874;9.154;2023-02-01T09:07:21;100899.84;;;6.13;92.36
71465;BME280;59274;49.874;9.154;2023-02-01T09:09:46;100893.47;;;6.17;92.75
71465;BME280;59274;49.874;9.154;2023-02-01T09:12:12;100891.91;;;6.16;91.11
71465;BME280;59274;49.874;9.154;2023-02-01T09:14:37;100895.66;;;6.24;91.39
71465;BME280;59274;49.874;9.154;2023-02-01T09:17:03;100888.00;;;6.26;91.41
71465;BME280;59274;49.874;9.154;2023-02-01T09:19:28;100886.91;;;6.27;92.58
71465;BME280;59274;49.874;9.154;2023-02-01T09:21:54;100889.78;;;6.22;91.89
71465;BME280;59274;49.874;9.154;2023-02-01T09:24:19;100902.16;;;6.23;90.75
71465;BME280;59274;49.874;9.154;2023-02-01T09:26:45;100911.69;;;6.20;91.02
71465;BME280;59274;49.874;9.154;2023-02-01T09:29:10;100899.03;;;6.12;90.64
71465;BME280;59274;49.874;9.154;2023-02-01T09:31:36;100917.75;;;6.17;91.31
71465;BME280;59274;49.874;9.154;2023-02-01T09:34:02;100937.28;;;6.14;89.16
71465;BME280;59274;49.874;9.154;2023-02-01T09:36:28;100916.53;;;6.06;88.42
71465;BME280;59274;49.874;9.154;2023-02-01T09:38:53;100920.34;;;6.05;89.97
71465;BME280;59274;49.874;9.154;2023-02-01T09:44:21;100928.69;;;6.12;87.66
71465;BME280;59274;49.874;9.154;2023-02-01T09:46:54;100931.91;;;6.06;88.20
71465;BME280;59274;49.874;9.154;2023-02-01T09:49:29;100945.25;;;6.02;88.48
71465;BME280;59274;49.874;9.154;2023-02-01T09:51:55;100957.00;;;5.98;87.46
71465;BME280;59274;49.874;9.154;2023-02-01T09:54:28;100955.75;;;5.95;88.35
71465;BME280;59274;49.874;9.154;2023-02-01T09:57:01;100964.75;;;5.99;88.54
71465;BME280;59274;49.874;9.154;2023-02-01T09:59:41;100961.28;;;5.99;88.33
71465;BME280;59274;49.874;9.154;2023-02-01T10:02:24;100963.53;;;5.97;86.57
71465;BME280;59274;49.874;9.154;2023-02-01T10:04:54;100966.53;;;5.95;87.15
71465;BME280;59274;49.874;9.154;2023-02-01T10:21:02;100951.97;;;5.87;87.70
71465;BME280;59274;49.874;9.154;2023-02-01T10:26:22;100952.44;;;5.89;87.11
71465;BME280;59274;49.874;9.154;2023-02-01T10:28:53;100952.44;;;5.89;86.78
71465;BME280;59274;49.874;9.154;2023-02-01T10:31:24;100953.38;;;5.94;86.03
71465;BME280;59274;49.874;9.154;2023-02-01T10:33:59;100949.88;;;5.93;86.51
71465;BME280;59274;49.874;9.154;2023-02-01T10:36:35;100943.50;;;5.98;87.25
71465;BME280;59274;49.874;9.154;2023-02-01T10:39:03;100938.47;;;5.96;85.38
71465;BME280;59274;49.874;9.154;2023-02-01T10:41:38;100935.56;;;6.10;85.14
71465;BME280;59274;49.874;9.154;2023-02-01T10:44:09;100928.38;;;6.14;83.66
71465;BME280;59274;49.874;9.154;2023-02-01T10:46:36;100931.69;;;6.19;84.46
71465;BME280;59274;49.874;9.154;2023-02-01T10:49:03;100923.06;;;6.26;82.69
71465;BME280;59274;49.874;9.154;2023-02-01T10:54:36;100907.59;;;6.44;81.87
71465;BME280;59274;49.874;9.154;2023-02-01T10:57:23;100902.84;;;6.41;80.93
71465;BME280;59274;49.874;9.154;2023-02-01T10:59:55;100906.47;;;6.45;80.47
71465;BME280;59274;49.874;9.154;2023-02-01T11:02:26;100887.84;;;6.52;80.27
71465;BME280;59274;49.874;9.154;2023-02-01T11:05:08;100888.31;;;6.54;80.29
71465;BME280;59274;49.874;9.154;2023-02-01T11:07:36;100887.66;;;6.57;80.11
71465;BME280;59274;49.874;9.154;2023-02-01T11:10:03;100886.53;;;6.58;80.67
71465;BME280;59274;49.874;9.154;2023-02-01T11:12:34;100890.63;;;6.43;78.99
71465;BME280;59274;49.874;9.154;2023-02-01T11:15:23;100866.81;;;6.45;80.38
71465;BME280;59274;49.874;9.154;2023-02-01T11:17:51;100873.78;;;6.46;79.30
71465;BME280;59274;49.874;9.154;2023-02-01T11:20:19;100881.88;;;6.46;78.79
71465;BME280;59274;49.874;9.154;2023-02-01T11:22:53;100866.34;;;6.43;79.96
71465;BME280;59274;49.874;9.154;2023-02-01T11:25:20;100864.38;;;6.52;78.61
71465;BME280;59274;49.874;9.154;2023-02-01T11:27:48;100871.19;;;6.50;80.19
71465;BME280;59274;49.874;9.154;2023-02-01T11:30:22;100868.72;;;6.45;79.36
71465;BME280;59274;49.874;9.154;2023-02-01T11:32:51;100864.75;;;6.42;80.07
71465;BME280;59274;49.874;9.154;2023-02-01T11:35:19;100861.66;;;6.32;80.00
71465;BME280;59274;49.874;9.154;2023-02-01T11:37:54;100867.44;;;6.42;80.28
71465;BME280;59274;49.874;9.154;2023-02-01T11:42:54;100866.19;;;6.40;79.66
71465;BME280;59274;49.874;9.154;2023-02-01T11:45:25;100868.13;;;6.39;79.67
71465;BME280;59274;49.874;9.154;2023-02-01T11:47:56;100861.94;;;6.39;79.89
71465;BME280;59274;49.874;9.154;2023-02-01T11:56:39;100854.28;;;6.41;80.25
71465;BME280;59274;49.874;9.154;2023-02-01T12:12:35;100849.94;;;6.27;79.96
71465;BME280;59274;49.874;9.154;2023-02-01T12:18:34;100846.66;;;6.22;80.03
71465;BME280;59274;49.874;9.154;2023-02-01T12:26:40;100835.00;;;6.30;79.50
71465;BME280;59274;49.874;9.154;2023-02-01T12:37:55;100828.16;;;6.33;80.17
71465;BME280;59274;49.874;9.154;2023-02-01T12:40:42;100830.34;;;6.39;80.02
71465;BME280;59274;49.874;9.154;2023-02-01T12:45:58;100824.69;;;6.32;80.19
71465;BME280;59274;49.874;9.154;2023-02-01T12:51:31;100832.25;;;6.39;80.21
71465;BME280;59274;49.874;9.154;2023-02-01T12:57:01;100812.13;;;6.36;81.87
71465;BME280;59274;49.874;9.154;2023-02-01T12:59:46;100806.25;;;6.34;80.54
71465;BME280;59274;49.874;9.154;2023-02-01T13:02:28;100796.94;;;6.32;81.35
71465;BME280;59274;49.874;9.154;2023-02-01T13:05:12;100795.47;;;6.34;81.10
71465;BME280;59274;49.874;9.154;2023-02-01T13:07:54;100781.66;;;6.36;81.75
71465;BME280;59274;49.874;9.154;2023-02-01T13:10:38;100780.66;;;6.40;81.55
71465;BME280;59274;49.874;9.154;2023-02-01T13:15:41;100786.13;;;6.32;81.93
71465;BME280;59274;49.874;9.154;2023-02-01T13:18:14;100789.88;;;6.39;81.28
71465;BME280;59274;49.874;9.154;2023-02-01T13:20:47;100781.72;;;6.27;82.11
71465;BME280;59274;49.874;9.154;2023-02-01T13:23:35;100781.06;;;6.30;81.73
71465;BME280;59274;49.874;9.154;2023-02-01T13:26:02;100778.38;;;6.30;81.84
71465;BME280;59274;49.874;9.154;2023-02-01T13:33:55;100785.00;;;6.33;79.25
71465;BME280;59274;49.874;9.154;2023-02-01T13:36:43;100774.03;;;6.38;79.09
71465;BME280;59274;49.874;9.154;2023-02-01T13:39:50;100769.50;;;6.29;78.97
71465;BME280;59274;49.874;9.154;2023-02-01T13:42:23;100778.69;;;6.28;78.91
71465;BME280;59274;49.874;9.154;2023-02-01T13:44:56;100775.78;;;6.34;78.87
71465;BME280;59274;49.874;9.154;2023-02-01T13:47:29;100777.56;;;6.29;79.13
71465;BME280;59274;49.874;9.154;2023-02-01T13:49:58;100778.16;;;6.35;78.69
71465;BME280;59274;49.874;9.154;2023-02-01T13:52:29;100773.63;;;6.27;79.93
71465;BME280;59274;49.874;9.154;2023-02-01T13:55:03;100768.38;;;6.31;79.44
71465;BME280;59274;49.874;9.154;2023-02-01T13:57:40;100771.06;;;6.31;79.17
71465;BME280;59274;49.874;9.154;2023-02-01T14:23:46;100772.63;;;6.52;79.49
71465;BME280;59274;49.874;9.154;2023-02-01T14:26:18;100760.59;;;6.50;79.14
71465;BME280;59274;49.874;9.154;2023-02-01T14:29:23;100761.59;;;6.45;79.45
71465;BME280;59274;49.874;9.154;2023-02-01T14:31:54;100761.44;;;6.42;79.87
71465;BME280;59274;49.874;9.154;2023-02-01T14:34:31;100769.06;;;6.40;80.19
71465;BME280;59274;49.874;9.154;2023-02-01T14:37:09;100759.53;;;6.42;80.07
71465;BME280;59274;49.874;9.154;2023-02-01T14:44:55;100759.13;;;6.52;78.75
71465;BME280;59274;49.874;9.154;2023-02-01T14:49:55;100761.94;;;6.56;78.93
71465;BME280;59274;49.874;9.154;2023-02-01T14:52:32;100760.28;;;6.63;78.61
71465;BME280;59274;49.874;9.154;2023-02-01T14:55:02;100760.72;;;6.53;79.15
71465;BME280;59274;49.874;9.154;2023-02-01T14:57:29;100762.75;;;6.56;79.03
71465;BME280;59274;49.874;9.154;2023-02-01T15:00:05;100752.75;;;6.57;79.25
71465;BME280;59274;49.874;9.154;2023-02-01T15:02:33;100749.81;;;6.62;79.04
71465;BME280;59274;49.874;9.154;2023-02-01T15:05:00;100750.94;;;6.61;79.79
71465;BME280;59274;49.874;9.154;2023-02-01T15:07:26;100740.50;;;6.59;78.99
71465;BME280;59274;49.874;9.154;2023-02-01T15:09:55;100755.56;;;6.60;78.96
71465;BME280;59274;49.874;9.154;2023-02-01T15:12:27;100749.72;;;6.58;78.95
71465;BME280;59274;49.874;9.154;2023-02-01T15:15:19;100733.78;;;6.65;78.64
71465;BME280;59274;49.874;9.154;2023-02-01T15:17:58;100740.59;;;6.63;78.35
71465;BME280;59274;49.874;9.154;2023-02-01T15:20:32;100738.47;;;6.68;78.18
71465;BME280;59274;49.874;9.154;2023-02-01T15:23:04;100736.78;;;6.64;78.08
71465;BME280;59274;49.874;9.154;2023-02-01T15:25:35;100735.53;;;6.61;79.20
71465;BME280;59274;49.874;9.154;2023-02-01T15:28:02;100747.66;;;6.55;78.75
71465;BME280;59274;49.874;9.154;2023-02-01T15:30:30;100729.78;;;6.51;79.09
71465;BME280;59274;49.874;9.154;2023-02-01T15:33:08;100737.41;;;6.49;80.29
71465;BME280;59274;49.874;9.154;2023-02-01T15:35:55;100734.63;;;6.57;79.37
71465;BME280;59274;49.874;9.154;2023-02-01T15:46:36;100740.03;;;6.57;79.83
71465;BME280;59274;49.874;9.154;2023-02-01T15:49:03;100728.91;;;6.59;79.25
71465;BME280;59274;49.874;9.154;2023-02-01T15:51:31;100733.06;;;6.56;80.30